Time;durP1;ratioP1;P1;durP2;ratioP2;P2;SDS_P1;SDS_P2;PMS_P1;PMS_P2;Temp;Humidity;BMP_temperature;BMP_pressure;BME280_temperature;BME280_humidity;BME280_pressure;Samples;Min_cycle;Max_cycle;Signal;HPM_P1;HPM_P2
2022/04/26 03:37:40;;;;;;;8.03;6.67;;;4.00;99.90;;;;;;5003606;28;20275;-81
2022/04/26 03:40:06;;;;;;;8.80;6.97;;;4.00;99.90;;;;;;5008812;28;20533;-83
2022/04/26 03:42:33;;;;;;;7.90;6.33;;;4.00;99.90;;;;;;5025972;28;20175;-82
2022/04/26 03:44:59;;;;;;;8.47;6.67;;;4.10;99.90;;;;;;5009377;28;20190;-81
2022/04/26 03:47:24;;;;;;;7.80;6.17;;;4.20;99.90;;;;;;5008136;28;20178;-81
2022/04/26 03:49:50;;;;;;;8.57;6.30;;;4.10;99.90;;;;;;5028120;28;20920;-84
2022/04/26 03:52:15;;;;;;;6.77;6.07;;;4.10;99.90;;;;;;5010976;28;20198;-84
2022/04/26 03:54:41;;;;;;;5.97;5.43;;;4.20;99.90;;;;;;5010279;28;20183;-84
2022/04/26 03:57:07;;;;;;;7.73;6.63;;;4.20;99.90;;;;;;5009701;28;20813;-84
2022/04/26 03:59:32;;;;;;;6.73;5.87;;;4.30;99.90;;;;;;5008656;28;20179;-81
2022/04/26 04:01:58;;;;;;;6.07;5.17;;;4.30;99.90;;;;;;5026766;28;20206;-85
2022/04/26 04:04:23;;;;;;;8.13;6.33;;;4.30;99.90;;;;;;5008366;28;20260;-82
2022/04/26 04:06:49;;;;;;;6.63;5.73;;;4.40;99.90;;;;;;5008688;28;20187;-83
2022/04/26 04:09:15;;;;;;;6.80;6.07;;;4.50;99.90;;;;;;5026132;28;20265;-82
2022/04/26 04:11:40;;;;;;;7.20;6.17;;;4.60;99.90;;;;;;5008783;28;20289;-84
2022/04/26 04:14:06;;;;;;;7.33;6.20;;;4.60;99.90;;;;;;5027073;28;20645;-82
2022/04/26 04:16:32;;;;;;;8.23;6.60;;;4.70;99.90;;;;;;5008705;28;20183;-82
2022/04/26 04:21:41;;;;;;;9.60;7.47;;;4.70;99.90;;;;;;5026043;28;20214;-83
2022/04/26 04:24:07;;;;;;;8.83;6.77;;;4.80;99.90;;;;;;5008264;28;20943;-84
2022/04/26 04:26:33;;;;;;;8.03;6.83;;;5.00;99.90;;;;;;5008542;28;20221;-82
2022/04/26 04:28:58;;;;;;;7.80;6.37;;;5.10;99.90;;;;;;5008093;28;20216;-81
2022/04/26 04:31:24;;;;;;;7.37;5.97;;;5.20;99.90;;;;;;5025734;28;20260;-83
2022/04/26 04:33:49;;;;;;;7.67;6.23;;;5.20;99.90;;;;;;5007467;28;20759;-82
2022/04/26 04:36:15;;;;;;;8.23;6.60;;;5.20;99.90;;;;;;5025056;28;20190;-81
2022/04/26 04:38:41;;;;;;;8.13;6.70;;;5.40;99.90;;;;;;5024613;28;20641;-82
2022/04/26 04:41:08;;;;;;;14.93;11.60;;;5.40;99.90;;;;;;5006978;28;20298;-82
2022/04/26 04:43:34;;;;;;;13.07;10.90;;;5.40;99.90;;;;;;5024203;28;20709;-81
2022/04/26 04:46:00;;;;;;;11.83;9.00;;;5.50;99.90;;;;;;5007179;28;20899;-81
2022/04/26 04:48:25;;;;;;;12.23;9.43;;;5.40;99.90;;;;;;5023519;28;20225;-81
2022/04/26 04:50:51;;;;;;;11.83;8.30;;;5.40;99.90;;;;;;5005916;28;20502;-80
2022/04/26 04:53:18;;;;;;;9.33;8.37;;;5.60;99.90;;;;;;5021720;28;20831;-83
2022/04/26 04:55:44;;;;;;;9.17;7.70;;;5.50;99.90;;;;;;5006087;28;20187;-81
2022/04/26 04:58:10;;;;;;;9.20;7.37;;;5.70;99.90;;;;;;5006035;28;20217;-82
2022/04/26 05:00:35;;;;;;;9.23;7.10;;;5.80;99.90;;;;;;5023692;28;20206;-82
2022/04/26 05:03:02;;;;;;;8.33;7.10;;;5.90;99.90;;;;;;5011749;28;20179;-80
2022/04/26 05:05:28;;;;;;;8.47;7.40;;;6.00;99.90;;;;;;5015346;28;20657;-81
2022/04/26 05:07:54;;;;;;;8.03;6.70;;;6.00;99.90;;;;;;5031575;28;20457;-81
2022/04/26 05:10:21;;;;;;;7.90;6.53;;;6.20;99.90;;;;;;5014229;28;20700;-81
2022/04/26 05:12:48;;;;;;;8.30;6.80;;;6.30;99.90;;;;;;5013013;28;20193;-81
2022/04/26 05:15:14;;;;;;;7.07;6.20;;;6.40;99.90;;;;;;5008627;28;20194;-81
2022/04/26 05:17:40;;;;;;;7.53;6.33;;;6.50;99.90;;;;;;5006988;28;20195;-84
2022/04/26 05:20:06;;;;;;;6.63;5.87;;;6.50;99.90;;;;;;5005980;28;20214;-84
2022/04/26 05:22:31;;;;;;;7.57;6.73;;;6.70;99.90;;;;;;5010481;28;20183;-85
2022/04/26 05:24:57;;;;;;;8.47;7.33;;;6.80;99.90;;;;;;5010076;28;20179;-82
2022/04/26 05:27:28;;;;;;;7.83;7.00;;;6.90;99.90;;;;;;5011034;28;20187;-84
2022/04/26 05:29:55;;;;;;;8.50;6.90;;;7.60;99.90;;;;;;5011601;28;20187;-85
2022/04/26 05:32:29;;;;;;;9.40;7.23;;;8.50;99.90;;;;;;5010882;28;20677;-82
2022/04/26 05:35:00;;;;;;;8.30;6.80;;;9.20;99.90;;;;;;5027083;28;20194;-82
2022/04/26 05:37:27;;;;;;;7.77;6.57;;;9.50;99.90;;;;;;5005516;28;20226;-83
2022/04/26 05:39:54;;;;;;;7.82;6.88;;;10.00;99.90;;;;;;5022437;28;20224;-82
2022/04/26 05:42:20;;;;;;;7.40;6.57;;;10.50;99.90;;;;;;5022446;28;20199;-83
2022/04/26 05:44:46;;;;;;;7.60;6.72;;;11.00;99.90;;;;;;5006559;28;20559;-83
2022/04/26 05:47:12;;;;;;;8.77;7.57;;;11.50;99.90;;;;;;5006316;28;20270;-81
2022/04/26 05:49:37;;;;;;;9.40;7.40;;;11.90;99.90;;;;;;5006773;28;20199;-82
2022/04/26 05:52:04;;;;;;;10.68;8.90;;;12.20;99.90;;;;;;5008285;28;20213;-82
2022/04/26 05:54:30;;;;;;;9.48;8.40;;;12.30;99.90;;;;;;5009026;28;20252;-82
2022/04/26 05:56:56;;;;;;;11.95;8.90;;;12.50;99.90;;;;;;5006900;28;20281;-82
2022/04/26 05:59:22;;;;;;;14.55;10.75;;;12.70;99.90;;;;;;5025147;28;20277;-82
2022/04/26 06:01:48;;;;;;;13.45;11.10;;;12.90;99.90;;;;;;5006866;28;20273;-81
2022/04/26 06:04:14;;;;;;;11.93;10.07;;;13.00;99.90;;;;;;5025507;28;20187;-82
2022/04/26 06:06:40;;;;;;;13.90;10.40;;;13.10;99.90;;;;;;5025210;28;20206;-83
2022/04/26 06:09:06;;;;;;;17.48;12.05;;;13.30;99.90;;;;;;5010456;28;20226;-84
2022/04/26 06:11:32;;;;;;;15.57;12.50;;;13.60;99.90;;;;;;5012060;28;20572;-82
2022/04/26 06:13:58;;;;;;;17.45;13.30;;;13.70;99.90;;;;;;5011078;28;20187;-82
2022/04/26 06:16:24;;;;;;;17.90;13.55;;;13.90;99.90;;;;;;5008360;28;20190;-83
2022/04/26 06:18:50;;;;;;;23.83;15.55;;;14.30;99.90;;;;;;5007025;28;20748;-83
2022/04/26 06:21:16;;;;;;;21.08;16.48;;;14.40;99.90;;;;;;5007528;28;20712;-85
2022/04/26 06:23:41;;;;;;;19.50;15.65;;;14.60;99.90;;;;;;5010131;28;20214;-82
2022/04/26 06:26:07;;;;;;;19.63;14.30;;;14.50;99.90;;;;;;5029118;28;20683;-82
2022/04/26 06:28:33;;;;;;;18.27;15.23;;;14.50;99.90;;;;;;5010758;28;21034;-82
2022/04/26 06:30:59;;;;;;;19.08;15.25;;;14.30;99.90;;;;;;5011866;28;20214;-82
2022/04/26 06:33:24;;;;;;;19.75;14.50;;;14.20;99.90;;;;;;5025972;28;20182;-83
2022/04/26 06:35:50;;;;;;;17.73;14.30;;;14.20;99.90;;;;;;5010799;28;20228;-84
2022/04/26 06:38:19;;;;;;;18.23;14.20;;;13.50;99.90;;;;;;5009802;28;20211;-82
2022/04/26 06:40:46;;;;;;;19.45;15.20;;;13.20;99.90;;;;;;5008196;28;20274;-82
2022/04/26 06:43:12;;;;;;;19.52;14.57;;;12.50;99.90;;;;;;5009943;28;20190;-81
2022/04/26 06:45:38;;;;;;;19.75;15.48;;;12.00;99.90;;;;;;5010272;28;20186;-82
2022/04/26 06:48:22;;;;;;;21.40;15.40;;;12.10;99.90;;;;;;5010416;28;20348;-82
2022/04/26 06:50:48;;;;;;;20.50;15.38;;;11.90;99.90;;;;;;5027922;28;20427;-82
2022/04/26 06:53:14;;;;;;;22.27;14.65;;;11.90;99.90;;;;;;5010939;28;20175;-83
2022/04/26 06:55:39;;;;;;;20.90;14.90;;;11.90;99.90;;;;;;5010162;28;20189;-82
2022/04/26 06:58:06;;;;;;;18.50;14.95;;;11.90;99.90;;;;;;5027417;28;20233;-83
2022/04/26 07:00:32;;;;;;;20.15;14.20;;;11.90;99.90;;;;;;5028182;28;21125;-81
2022/04/26 07:02:58;;;;;;;21.98;14.85;;;11.90;99.90;;;;;;5010724;28;20182;-82
2022/04/26 07:05:24;;;;;;;18.15;13.77;;;12.00;99.90;;;;;;5008165;28;20910;-82
2022/04/26 07:07:52;;;;;;;17.80;13.90;;;12.20;99.90;;;;;;5026556;28;20269;-84
2022/04/26 07:10:18;;;;;;;20.65;14.57;;;12.30;99.90;;;;;;5009298;28;20187;-82
2022/04/26 07:12:43;;;;;;;20.08;14.32;;;12.30;99.90;;;;;;5009559;28;20177;-83
2022/04/26 07:15:09;;;;;;;18.70;14.20;;;12.20;99.90;;;;;;5010612;28;20232;-83
2022/04/26 07:17:39;;;;;;;17.23;14.20;;;12.40;99.90;;;;;;5026841;28;20651;-82
2022/04/26 07:20:05;;;;;;;18.75;13.32;;;12.60;99.90;;;;;;5008841;28;20645;-82
2022/04/26 07:22:32;;;;;;;17.58;13.80;;;12.80;99.90;;;;;;5023723;28;20203;-82
2022/04/26 07:24:57;;;;;;;19.63;13.82;;;12.80;99.90;;;;;;5005543;28;20186;-83
2022/04/26 07:27:24;;;;;;;16.58;13.55;;;13.00;99.90;;;;;;5024228;28;20179;-82
2022/04/26 07:29:50;;;;;;;17.60;14.23;;;13.00;99.90;;;;;;5006245;28;20592;-81
2022/04/26 07:32:16;;;;;;;16.20;13.23;;;12.90;99.90;;;;;;5005852;28;21092;-81
2022/04/26 07:34:41;;;;;;;16.98;13.82;;;13.10;99.90;;;;;;5004357;28;20175;-82
2022/04/26 07:37:07;;;;;;;16.95;13.63;;;13.30;99.90;;;;;;5004060;28;20202;-82
2022/04/26 07:39:35;;;;;;;14.40;12.38;;;13.40;99.90;;;;;;5005268;28;20179;-83
2022/04/26 07:42:04;;;;;;;14.48;12.02;;;13.30;99.90;;;;;;5007411;28;20206;-82
2022/04/26 07:44:30;;;;;;;18.85;12.82;;;13.30;99.90;;;;;;5008430;28;20284;-82
2022/04/26 07:46:56;;;;;;;16.10;12.38;;;13.30;99.90;;;;;;5026885;28;20194;-82
2022/04/26 07:49:26;;;;;;;17.13;13.32;;;13.10;99.90;;;;;;5009374;28;20963;-82
2022/04/26 07:51:52;;;;;;;16.58;13.05;;;13.00;99.90;;;;;;5008310;28;20601;-80
2022/04/26 07:54:19;;;;;;;16.70;13.20;;;13.10;99.90;;;;;;5004468;28;20187;-81
2022/04/26 07:56:45;;;;;;;15.75;13.07;;;13.30;99.90;;;;;;5003546;28;20182;-80
2022/04/26 07:59:11;;;;;;;16.27;13.00;;;13.50;99.90;;;;;;5022232;28;20264;-82
2022/04/26 08:01:37;;;;;;;13.07;10.52;;;13.60;99.90;;;;;;5004625;28;20700;-80
2022/04/26 08:04:03;;;;;;;14.02;11.30;;;13.50;99.90;;;;;;5022558;28;20190;-80
2022/04/26 08:06:29;;;;;;;13.30;11.70;;;13.60;99.90;;;;;;5004955;28;20637;-81
2022/04/26 08:08:55;;;;;;;14.10;11.68;;;13.60;99.90;;;;;;5005100;28;20190;-82
2022/04/26 08:11:24;;;;;;;14.00;11.82;;;13.70;99.90;;;;;;5004592;28;20662;-82
2022/04/26 08:13:50;;;;;;;13.90;11.68;;;14.00;99.90;;;;;;5005415;28;20217;-83
2022/04/26 08:16:16;;;;;;;14.35;11.98;;;13.80;99.90;;;;;;5022305;28;20214;-82
2022/04/26 08:18:42;;;;;;;13.45;10.88;;;14.30;99.90;;;;;;5004288;28;20294;-82
2022/04/26 08:21:07;;;;;;;12.25;10.63;;;14.40;99.90;;;;;;5021396;28;20213;-82
2022/04/26 08:27:22;;;;;;;13.80;10.82;;;14.60;99.90;;;;;;5021965;28;20221;-82
2022/04/26 08:29:12;;;;;;;11.00;8.48;;;14.80;99.90;;;;;;5022181;28;20201;-85
2022/04/26 08:31:38;;;;;;;8.90;6.72;;;15.10;99.90;;;;;;5003935;28;20202;-81
2022/04/26 08:34:04;;;;;;;8.52;6.70;;;15.40;99.90;;;;;;5024951;28;20194;-82
2022/04/26 08:36:31;;;;;;;7.65;6.70;;;15.40;99.90;;;;;;5023872;28;20289;-82
2022/04/26 08:38:56;;;;;;;8.20;6.35;;;15.60;99.90;;;;;;5006514;28;20222;-82
2022/04/26 08:41:22;;;;;;;6.90;6.07;;;15.50;99.90;;;;;;5005178;28;20203;-83
2022/04/26 08:43:48;;;;;;;9.27;6.75;;;15.50;99.90;;;;;;5024196;28;20179;-83
2022/04/26 08:46:13;;;;;;;9.45;7.05;;;15.70;99.90;;;;;;5007003;28;20737;-82
2022/04/26 08:51:23;;;;;;;8.35;6.65;;;16.00;99.90;;;;;;5026548;28;20213;-85
2022/04/26 08:53:49;;;;;;;8.68;7.25;;;15.70;99.90;;;;;;5008110;28;20728;-84
2022/04/26 08:56:16;;;;;;;7.85;7.05;;;15.40;99.90;;;;;;5009836;28;20528;-83
2022/04/26 08:58:42;;;;;;;7.88;6.75;;;15.00;99.90;;;;;;5011464;28;20244;-86
2022/04/26 09:01:13;;;;;;;6.90;5.85;;;14.70;99.90;;;;;;5012487;28;20207;-84
2022/04/26 09:03:40;;;;;;;6.55;5.55;;;14.60;99.90;;;;;;5030280;28;20178;-82
2022/04/26 09:06:13;;;;;;;5.72;4.50;;;14.50;99.90;;;;;;5028262;28;20179;-83
2022/04/26 09:08:39;;;;;;;5.47;4.45;;;14.60;99.90;;;;;;5010442;28;20194;-84
2022/04/26 09:11:28;;;;;;;6.03;4.90;;;14.50;99.90;;;;;;5011071;28;20349;-83
2022/04/26 09:13:54;;;;;;;5.78;4.45;;;14.50;99.90;;;;;;5029392;28;20179;-82
2022/04/26 09:16:21;;;;;;;6.22;5.03;;;14.30;99.90;;;;;;5011642;28;20189;-84
2022/04/26 09:18:53;;;;;;;5.40;4.63;;;14.10;99.90;;;;;;5026383;28;20202;-83
2022/04/26 09:21:19;;;;;;;5.60;4.88;;;14.10;99.90;;;;;;5010691;28;20214;-82
2022/04/26 09:23:46;;;;;;;5.63;5.03;;;14.00;99.90;;;;;;5011169;28;20222;-83
2022/04/26 09:26:15;;;;;;;6.43;5.00;;;14.10;99.90;;;;;;5009417;28;20186;-82
2022/04/26 09:28:44;;;;;;;6.47;5.75;;;14.20;99.90;;;;;;5009201;28;20179;-80
2022/04/26 09:31:21;;;;;;;8.63;6.55;;;14.10;99.90;;;;;;5010510;28;20229;-81
2022/04/26 09:33:51;;;;;;;6.80;6.00;;;14.00;99.90;;;;;;5027772;28;20179;-84
2022/04/26 09:36:19;;;;;;;6.40;5.70;;;14.10;99.90;;;;;;5009756;28;20274;-81
2022/04/26 09:38:50;;;;;;;6.55;5.85;;;14.30;99.90;;;;;;5022435;28;20280;-82
2022/04/26 09:41:16;;;;;;;14.55;10.80;;;14.30;99.90;;;;;;5022090;28;20537;-82
2022/04/26 09:43:42;;;;;;;16.77;10.68;;;14.40;99.90;;;;;;5023773;28;20214;-83
2022/04/26 09:46:08;;;;;;;8.60;7.20;;;14.40;99.90;;;;;;5006743;28;20467;-81
2022/04/26 09:48:38;;;;;;;7.15;5.18;;;14.50;99.90;;;;;;5023537;28;20183;-82
2022/04/26 09:51:08;;;;;;;6.05;5.30;;;14.60;99.90;;;;;;5006130;28;20207;-81
2022/04/26 09:53:34;;;;;;;7.07;5.65;;;14.60;99.90;;;;;;5023952;28;20193;-82
2022/04/26 09:56:02;;;;;;;7.68;6.28;;;14.60;99.90;;;;;;5024239;28;20453;-82
2022/04/26 09:58:29;;;;;;;7.47;6.65;;;14.50;99.90;;;;;;5023169;28;20260;-82
2022/04/26 10:01:01;;;;;;;5.90;5.20;;;14.40;99.90;;;;;;5006074;28;20711;-81
2022/04/26 10:03:36;;;;;;;6.93;5.75;;;14.50;99.90;;;;;;5005274;28;20724;-82
2022/04/26 10:06:05;;;;;;;7.72;5.75;;;14.40;99.90;;;;;;5007945;28;20223;-82
2022/04/26 10:08:34;;;;;;;6.47;5.78;;;14.40;99.90;;;;;;5023160;28;20175;-83
2022/04/26 10:11:01;;;;;;;6.97;5.60;;;14.50;99.90;;;;;;5026514;28;20198;-83
2022/04/26 10:13:32;;;;;;;5.55;4.90;;;14.60;99.90;;;;;;5007802;28;20202;-82
2022/04/26 10:16:07;;;;;;;6.20;5.20;;;14.70;99.90;;;;;;5008757;28;20191;-80
2022/04/26 10:18:50;;;;;;;6.55;5.03;;;14.70;99.90;;;;;;5027519;28;20288;-85
2022/04/26 10:21:22;;;;;;;6.65;5.18;;;14.70;99.90;;;;;;5012190;28;20195;-82
2022/04/26 10:23:50;;;;;;;7.20;6.00;;;14.60;99.90;;;;;;5009478;28;20183;-83
2022/04/26 10:26:22;;;;;;;11.35;8.20;;;14.50;99.90;;;;;;5027336;28;20210;-81
2022/04/26 10:28:51;;;;;;;7.28;6.50;;;14.50;99.90;;;;;;5009612;28;20206;-83
2022/04/26 10:31:17;;;;;;;8.18;6.00;;;14.60;99.90;;;;;;5009771;28;20256;-83
2022/04/26 10:33:47;;;;;;;7.00;5.95;;;14.50;99.90;;;;;;5025585;28;20649;-83
2022/04/26 10:36:28;;;;;;;6.35;5.53;;;14.30;99.90;;;;;;5009876;28;20278;-84
2022/04/26 10:39:06;;;;;;;12.02;7.70;;;14.30;99.90;;;;;;5009473;28;20207;-83
2022/04/26 10:41:46;;;;;;;8.68;7.18;;;14.30;99.90;;;;;;5010009;28;20603;-83
2022/04/26 10:44:17;;;;;;;8.75;7.10;;;14.20;99.90;;;;;;5026002;28;20179;-83
2022/04/26 10:46:44;;;;;;;9.07;7.03;;;14.20;99.90;;;;;;5009385;28;20689;-83
2022/04/26 10:49:24;;;;;;;8.07;6.47;;;14.10;99.90;;;;;;5026929;28;20289;-82
2022/04/26 10:51:55;;;;;;;10.52;6.65;;;14.10;99.90;;;;;;5009115;28;20213;-84
2022/04/26 10:54:45;;;;;;;7.55;6.75;;;14.00;99.90;;;;;;5009280;28;20179;-83
2022/04/26 10:57:12;;;;;;;8.82;6.80;;;14.00;99.90;;;;;;5009702;28;20285;-83
2022/04/26 10:59:45;;;;;;;9.07;7.05;;;13.90;99.90;;;;;;5009000;28;20179;-82
2022/04/26 11:02:13;;;;;;;9.95;7.55;;;14.00;99.90;;;;;;5027457;28;20191;-81
2022/04/26 11:04:39;;;;;;;6.78;5.95;;;13.90;99.90;;;;;;5027524;28;20232;-83
2022/04/26 11:07:18;;;;;;;8.55;6.00;;;13.90;99.90;;;;;;5009860;28;20196;-82
2022/04/26 11:09:50;;;;;;;6.32;5.35;;;13.90;99.90;;;;;;5026286;28;20181;-83
2022/04/26 11:12:23;;;;;;;6.25;5.63;;;13.90;99.90;;;;;;5008590;28;20745;-82
2022/04/26 11:14:51;;;;;;;6.75;6.05;;;14.10;99.90;;;;;;5025961;28;20265;-82
2022/04/26 11:17:18;;;;;;;6.80;6.10;;;14.30;99.90;;;;;;5012049;28;20186;-81
2022/04/26 11:19:56;;;;;;;7.57;6.68;;;14.60;99.90;;;;;;5028072;28;20206;-83
2022/04/26 11:22:23;;;;;;;7.10;6.40;;;14.90;99.90;;;;;;5010382;28;20207;-84
2022/04/26 11:30:35;;;;;;;7.78;6.13;;;15.50;99.90;;;;;;5026038;28;20182;-82
2022/04/26 11:33:11;;;;;;;6.35;5.70;;;15.90;99.90;;;;;;5026829;28;20252;-83
2022/04/26 11:35:37;;;;;;;6.13;5.53;;;16.10;99.90;;;;;;5007692;28;20269;-81
2022/04/26 11:38:14;;;;;;;6.38;5.78;;;16.10;99.90;;;;;;5024182;28;21119;-82
2022/04/26 11:40:42;;;;;;;6.63;5.70;;;16.20;99.90;;;;;;5009762;28;20199;-82
2022/04/26 11:43:14;;;;;;;10.32;7.45;;;16.40;99.90;;;;;;5029059;28;20220;-82
2022/04/26 11:45:44;;;;;;;8.18;5.97;;;16.40;99.90;;;;;;5007860;28;20258;-82
2022/04/26 11:48:13;;;;;;;8.07;6.25;;;16.40;99.90;;;;;;5026700;28;20182;-81
2022/04/26 11:50:40;;;;;;;6.95;5.97;;;16.40;99.90;;;;;;5007950;28;20221;-80
2022/04/26 11:53:08;;;;;;;5.95;5.38;;;16.50;99.90;;;;;;5028944;28;20225;-81
2022/04/26 11:55:40;;;;;;;6.22;5.22;;;16.50;99.90;;;;;;5028090;28;20179;-81
2022/04/26 11:58:13;;;;;;;7.10;5.78;;;16.90;99.90;;;;;;5029402;28;20232;-83
2022/04/26 12:00:55;;;;;;;5.15;4.65;;;17.60;99.90;;;;;;5021338;28;20639;-83
2022/04/26 12:03:24;;;;;;;5.45;4.88;;;18.10;99.90;;;;;;5008981;28;20186;-84
2022/04/26 12:06:02;;;;;;;5.68;4.72;;;18.20;99.90;;;;;;5023620;28;20220;-84
2022/04/26 12:08:33;;;;;;;5.75;4.97;;;18.00;99.90;;;;;;5003445;28;20197;-85
2022/04/26 12:11:17;;;;;;;5.25;4.75;;;17.40;99.90;;;;;;5005148;28;20207;-84
2022/04/26 12:13:43;;;;;;;4.82;4.32;;;16.90;99.90;;;;;;5004664;28;20197;-84
2022/04/26 12:16:16;;;;;;;4.40;4.00;;;16.40;99.90;;;;;;5003985;28;20192;-84
2022/04/26 12:19:09;;;;;;;4.53;3.55;;;15.50;99.90;;;;;;5020303;28;20856;-85
2022/04/26 12:21:52;;;;;;;3.33;2.92;;;15.00;99.90;;;;;;5001918;28;20217;-84
2022/04/26 12:24:25;;;;;;;4.80;3.53;;;14.40;99.90;;;;;;5004894;28;20378;-84
2022/04/26 12:27:03;;;;;;;3.70;3.35;;;13.90;99.90;;;;;;5005242;28;20228;-84
2022/04/26 12:29:47;;;;;;;5.05;3.70;;;13.70;99.90;;;;;;5021424;28;20265;-84
2022/04/26 12:32:18;;;;;;;3.60;3.30;;;13.30;99.90;;;;;;5025636;28;21014;-85
2022/04/26 12:34:53;;;;;;;3.92;3.53;;;13.20;99.90;;;;;;5008787;28;20202;-84
2022/04/26 12:37:22;;;;;;;4.57;4.07;;;13.20;99.90;;;;;;5007838;28;20193;-83
2022/04/26 12:39:58;;;;;;;5.45;4.10;;;13.00;99.90;;;;;;5007916;28;20195;-84
2022/04/26 12:42:26;;;;;;;3.78;3.40;;;13.00;99.90;;;;;;5024716;28;21052;-83
2022/04/26 12:45:01;;;;;;;4.22;3.80;;;13.00;99.90;;;;;;5007933;28;20187;-84
2022/04/26 12:50:35;;;;;;;5.90;4.30;;;13.10;99.90;;;;;;5030195;28;20182;-80
2022/04/26 12:53:06;;;;;;;3.97;3.65;;;13.00;99.90;;;;;;5008711;28;20760;-81
2022/04/26 12:55:36;;;;;;;4.18;3.78;;;12.90;99.90;;;;;;5026454;28;20186;-81
2022/04/26 12:58:07;;;;;;;4.32;3.80;;;13.00;99.90;;;;;;5029522;28;20625;-80
2022/04/26 13:00:37;;;;;;;4.32;3.67;;;13.10;99.90;;;;;;5030697;28;20297;-82
2022/04/26 13:03:05;;;;;;;3.90;3.55;;;13.20;99.90;;;;;;5029598;28;20191;-82
2022/04/26 13:05:45;;;;;;;3.88;3.58;;;13.10;99.90;;;;;;5013160;28;20179;-80
2022/04/26 13:08:11;;;;;;;4.03;3.63;;;13.10;99.90;;;;;;5014572;28;20235;-80
2022/04/26 13:10:40;;;;;;;4.57;3.70;;;13.20;99.90;;;;;;5033247;28;20207;-82
2022/04/26 13:13:06;;;;;;;4.07;3.67;;;13.10;99.90;;;;;;5014282;28;20183;-81
2022/04/26 13:15:32;;;;;;;4.75;3.97;;;13.40;99.90;;;;;;5032183;28;20183;-82
2022/04/26 13:17:59;;;;;;;4.38;3.97;;;13.50;99.90;;;;;;5015081;28;20207;-80
2022/04/26 13:20:25;;;;;;;5.30;4.07;;;13.60;99.90;;;;;;5014197;28;20228;-81
2022/04/26 13:22:51;;;;;;;5.53;4.55;;;13.70;99.90;;;;;;5032146;28;20251;-80
2022/04/26 13:25:17;;;;;;;5.65;4.57;;;13.50;99.90;;;;;;5013666;28;20258;-82
2022/04/26 13:27:45;;;;;;;4.70;4.28;;;13.70;99.90;;;;;;5013485;28;20183;-81
2022/04/26 13:30:11;;;;;;;5.38;4.15;;;13.70;99.90;;;;;;5012841;28;20221;-81
2022/04/26 13:32:37;;;;;;;4.60;4.10;;;13.60;99.90;;;;;;5031814;28;20615;-81
2022/04/26 13:35:05;;;;;;;4.05;3.65;;;13.60;99.90;;;;;;5014032;28;21017;-84
2022/04/26 13:37:31;;;;;;;4.53;4.07;;;13.60;99.90;;;;;;5012714;28;20198;-80
2022/04/26 13:39:58;;;;;;;4.65;4.15;;;13.70;99.90;;;;;;5013099;28;20691;-82
2022/04/26 13:42:25;;;;;;;4.47;3.95;;;13.70;99.90;;;;;;5012593;28;20199;-81
2022/04/26 13:44:52;;;;;;;3.70;3.30;;;13.80;99.90;;;;;;5013054;28;20175;-81
2022/04/26 13:47:18;;;;;;;5.47;3.97;;;13.90;99.90;;;;;;5031002;28;20175;-81
2022/04/26 13:49:44;;;;;;;4.32;3.10;;;14.10;99.90;;;;;;5013044;28;20183;-84
2022/04/26 13:52:10;;;;;;;3.75;3.38;;;14.20;99.90;;;;;;5014227;28;20672;-80
2022/04/26 13:54:36;;;;;;;5.70;3.58;;;14.30;99.90;;;;;;5012792;28;20318;-80
2022/04/26 13:57:03;;;;;;;4.15;3.47;;;14.30;99.90;;;;;;5013151;28;20207;-82
2022/04/26 13:59:28;;;;;;;4.88;3.53;;;14.50;99.90;;;;;;5031135;28;20210;-81
2022/04/26 14:01:55;;;;;;;4.20;3.60;;;14.70;99.90;;;;;;5014834;28;20582;-80
2022/04/26 14:04:21;;;;;;;4.60;3.72;;;15.00;99.90;;;;;;5013650;28;20218;-80
2022/04/26 14:06:48;;;;;;;4.93;3.47;;;15.10;99.90;;;;;;5014902;28;20179;-81
2022/04/26 14:09:14;;;;;;;4.22;3.20;;;15.20;99.90;;;;;;5013047;28;20189;-80
2022/04/26 14:11:40;;;;;;;3.40;3.10;;;15.10;99.90;;;;;;5013167;28;20194;-81
2022/04/26 14:22:19;;;;;;;4.85;3.63;;;14.80;99.90;;;;;;5031453;28;20263;-82
2022/04/26 14:24:44;;;;;;;5.40;3.72;;;14.90;99.90;;;;;;5013334;28;20182;-81
2022/04/26 14:27:10;;;;;;;5.05;3.47;;;14.90;99.90;;;;;;5013325;28;20198;-81
2022/04/26 14:29:36;;;;;;;4.60;3.60;;;15.10;99.90;;;;;;5013320;28;20193;-81
2022/04/26 14:32:02;;;;;;;5.97;3.78;;;15.20;99.90;;;;;;5032273;28;20202;-81
2022/04/26 14:34:28;;;;;;;5.80;3.75;;;15.20;99.90;;;;;;5032973;28;20581;-82
2022/04/26 14:36:54;;;;;;;4.97;3.78;;;15.30;99.90;;;;;;5033119;28;20191;-81
2022/04/26 14:39:19;;;;;;;6.32;4.25;;;15.30;99.90;;;;;;5017675;28;20199;-81
2022/04/26 14:41:45;;;;;;;7.25;5.80;;;15.40;99.90;;;;;;5031074;28;20214;-81
2022/04/26 14:44:10;;;;;;;4.57;3.90;;;15.40;99.90;;;;;;5031925;28;20483;-81
2022/04/26 14:46:36;;;;;;;4.63;3.67;;;15.40;99.90;;;;;;5028610;28;20324;-82
2022/04/26 14:49:03;;;;;;;4.72;3.83;;;15.40;99.90;;;;;;5030688;28;20183;-81
2022/04/26 14:51:29;;;;;;;4.32;3.80;;;15.50;99.90;;;;;;5049774;28;20206;-81
2022/04/26 14:53:55;;;;;;;4.38;3.60;;;15.70;99.90;;;;;;5031317;28;20226;-81
2022/04/26 14:56:21;;;;;;;3.83;3.42;;;15.70;99.90;;;;;;5030737;28;20195;-80
2022/04/26 14:58:49;;;;;;;6.35;4.03;;;15.70;99.90;;;;;;5033257;28;20205;-82
2022/04/26 15:01:15;;;;;;;4.15;3.75;;;15.80;99.90;;;;;;5023298;28;20203;-83
2022/04/26 15:03:40;;;;;;;3.88;3.33;;;15.50;99.90;;;;;;5035620;28;20190;-85
2022/04/26 15:06:06;;;;;;;4.35;3.20;;;15.70;99.90;;;;;;5033669;28;20289;-83
2022/04/26 15:11:15;;;;;;;2.63;2.42;;;16.00;99.90;;;;;;5034881;28;20264;-84
2022/04/26 15:16:37;;;;;;;3.00;2.70;;;15.80;99.90;;;;;;5033690;28;20708;-84
2022/04/26 15:19:04;;;;;;;3.83;3.38;;;15.90;99.90;;;;;;5014970;28;20211;-84
2022/04/26 15:21:29;;;;;;;4.10;2.78;;;16.00;99.90;;;;;;5014053;28;20202;-84
2022/04/26 15:23:55;;;;;;;3.10;2.80;;;16.00;99.90;;;;;;5014107;28;20236;-84
2022/04/26 15:26:22;;;;;;;3.22;2.70;;;16.00;99.90;;;;;;5013614;28;20302;-84
2022/04/26 15:28:47;;;;;;;3.47;2.75;;;16.00;99.90;;;;;;5029412;28;20179;-81
2022/04/26 15:31:18;;;;;;;3.05;2.75;;;16.00;99.90;;;;;;5030677;28;20274;-83
2022/04/26 15:33:44;;;;;;;3.67;2.78;;;16.00;99.90;;;;;;5013275;28;20194;-83
2022/04/26 15:36:10;;;;;;;6.60;4.30;;;16.00;99.90;;;;;;5010481;28;20221;-84
2022/04/26 15:38:37;;;;;;;4.05;3.63;;;15.90;99.90;;;;;;5009421;28;20210;-83
2022/04/26 15:41:05;;;;;;;4.03;3.63;;;15.90;99.90;;;;;;5027895;28;20272;-82
2022/04/26 15:43:34;;;;;;;4.47;3.60;;;15.80;99.90;;;;;;5026959;28;20175;-83
2022/04/26 15:46:06;;;;;;;3.90;3.45;;;15.70;99.90;;;;;;5009112;28;20589;-83
2022/04/26 15:48:34;;;;;;;3.15;2.85;;;15.50;99.90;;;;;;5026622;28;20206;-81
2022/04/26 15:51:00;;;;;;;4.18;3.40;;;15.40;99.90;;;;;;5008996;28;20659;-83
2022/04/26 15:53:25;;;;;;;3.70;3.40;;;15.30;99.90;;;;;;5008544;28;20214;-84
2022/04/26 15:55:51;;;;;;;3.90;3.35;;;15.30;99.90;;;;;;5009043;28;20275;-83
2022/04/26 15:58:17;;;;;;;3.30;2.90;;;15.20;99.90;;;;;;5007522;28;20203;-82
2022/04/26 16:00:44;;;;;;;4.32;3.50;;;15.20;99.90;;;;;;5009159;28;20199;-84
2022/04/26 16:03:09;;;;;;;4.65;3.50;;;15.20;99.90;;;;;;5026996;28;20183;-83
2022/04/26 16:05:36;;;;;;;4.95;3.72;;;15.20;99.90;;;;;;5008129;28;20237;-83
2022/04/26 16:08:03;;;;;;;5.07;3.90;;;15.20;99.90;;;;;;5007902;28;20730;-82
2022/04/26 16:21:26;;;;;;;4.80;3.88;;;14.90;99.90;;;;;;5028296;28;20272;-81
2022/04/26 16:23:54;;;;;;;5.53;3.72;;;14.80;99.90;;;;;;5028216;28;20183;-83
2022/04/26 16:26:22;;;;;;;6.40;4.47;;;14.80;99.90;;;;;;5010276;28;20179;-84
2022/04/26 16:28:49;;;;;;;5.03;4.30;;;14.80;99.90;;;;;;5026124;28;20247;-83
2022/04/26 16:31:15;;;;;;;5.57;3.90;;;14.80;99.90;;;;;;5028394;28;20230;-84
2022/04/26 16:33:41;;;;;;;4.65;3.80;;;14.70;99.90;;;;;;5026742;28;20206;-82
2022/04/26 16:36:08;;;;;;;5.38;4.30;;;14.50;99.90;;;;;;5010706;28;20233;-82
2022/04/26 16:38:36;;;;;;;7.03;4.78;;;14.50;99.90;;;;;;5027917;28;20272;-84
2022/04/26 16:41:04;;;;;;;6.90;4.72;;;14.40;99.90;;;;;;5010623;28;20575;-81
2022/04/26 16:43:29;;;;;;;7.88;4.85;;;14.40;99.90;;;;;;5009527;28;20254;-81
2022/04/26 16:45:56;;;;;;;6.57;4.32;;;14.30;99.90;;;;;;5010796;28;20325;-82
2022/04/26 16:48:22;;;;;;;6.10;4.90;;;14.20;99.90;;;;;;5026795;28;20207;-82
2022/04/26 16:50:48;;;;;;;6.60;4.20;;;14.10;99.90;;;;;;5009856;28;20280;-81
2022/04/26 16:53:14;;;;;;;4.82;4.32;;;14.00;99.90;;;;;;5026627;28;20556;-84
2022/04/26 16:55:40;;;;;;;4.53;3.58;;;14.00;99.90;;;;;;5009739;28;20185;-80
2022/04/26 16:58:06;;;;;;;5.55;4.07;;;13.90;99.90;;;;;;5009946;28;20212;-82
2022/04/26 17:00:32;;;;;;;5.25;4.13;;;13.90;99.90;;;;;;5027694;28;20206;-82
2022/04/26 17:02:58;;;;;;;6.68;3.97;;;13.80;99.90;;;;;;5009870;28;20183;-82
2022/04/26 17:05:24;;;;;;;4.25;3.80;;;13.90;99.90;;;;;;5009782;28;20244;-82